sensor_id;sensor_type;location;lat;lon;timestamp;pressure;altitude;pressure_sealevel;temperature;humidity
3150;BME280;32503;47.748;8.960;2023-05-20T00:01:20;96860.47;;;15.74;57.04
3150;BME280;32503;47.748;8.960;2023-05-20T00:03:47;96864.38;;;15.73;56.97
3150;BME280;32503;47.748;8.960;2023-05-20T00:06:14;96850.38;;;15.71;57.05
3150;BME280;32503;47.748;8.960;2023-05-20T00:08:41;96857.34;;;15.72;56.94
3150;BME280;32503;47.748;8.960;2023-05-20T00:11:08;96849.56;;;15.70;56.83
3150;BME280;32503;47.748;8.960;2023-05-20T00:13:37;96849.19;;;15.72;56.86
3150;BME280;32503;47.748;8.960;2023-05-20T00:16:05;96843.72;;;15.72;56.95
3150;BME280;32503;47.748;8.960;2023-05-20T00:18:32;96835.56;;;15.72;56.65
3150;BME280;32503;47.748;8.960;2023-05-20T00:20:59;96837.13;;;15.73;57.11
3150;BME280;32503;47.748;8.960;2023-05-20T00:23:26;96836.38;;;15.76;56.56
3150;BME280;32503;47.748;8.960;2023-05-20T00:25:53;96831.69;;;15.77;56.90
3150;BME280;32503;47.748;8.960;2023-05-20T00:28:20;96825.44;;;15.72;56.76
3150;BME280;32503;47.748;8.960;2023-05-20T00:30:49;96823.09;;;15.71;56.73
3150;BME280;32503;47.748;8.960;2023-05-20T00:33:16;96827.38;;;15.72;57.09
3150;BME280;32503;47.748;8.960;2023-05-20T00:35:43;96827.00;;;15.70;56.76
3150;BME280;32503;47.748;8.960;2023-05-20T00:38:10;96824.25;;;15.70;57.26
3150;BME280;32503;47.748;8.960;2023-05-20T00:40:37;96825.44;;;15.69;56.98
3150;BME280;32503;47.748;8.960;2023-05-20T00:43:04;96824.66;;;15.68;56.87
3150;BME280;32503;47.748;8.960;2023-05-20T00:45:32;96830.50;;;15.70;57.10
3150;BME280;32503;47.748;8.960;2023-05-20T00:48:01;96830.91;;;15.69;56.87
3150;BME280;32503;47.748;8.960;2023-05-20T00:50:28;96832.06;;;15.64;57.30
3150;BME280;32503;47.748;8.960;2023-05-20T00:52:55;96822.69;;;15.62;57.09
3150;BME280;32503;47.748;8.960;2023-05-20T00:55:24;96824.66;;;15.65;56.90
3150;BME280;32503;47.748;8.960;2023-05-20T00:57:51;96822.31;;;15.67;57.14
3150;BME280;32503;47.748;8.960;2023-05-20T01:00:19;96827.38;;;15.65;56.90
3150;BME280;32503;47.748;8.960;2023-05-20T01:02:46;96824.25;;;15.66;57.25
3150;BME280;32503;47.748;8.960;2023-05-20T01:05:14;96820.00;;;15.69;56.86
3150;BME280;32503;47.748;8.960;2023-05-20T01:07:42;96824.25;;;15.63;57.17
3150;BME280;32503;47.748;8.960;2023-05-20T01:10:09;96826.22;;;15.66;57.33
3150;BME280;32503;47.748;8.960;2023-05-20T01:12:39;96831.66;;;15.66;57.32
3150;BME280;32503;47.748;8.960;2023-05-20T01:15:10;96823.09;;;15.64;57.14
3150;BME280;32503;47.748;8.960;2023-05-20T01:17:42;96826.22;;;15.66;57.09
3150;BME280;32503;47.748;8.960;2023-05-20T01:20:14;96819.19;;;15.68;57.24
3150;BME280;32503;47.748;8.960;2023-05-20T01:22:48;96823.13;;;15.75;57.40
3150;BME280;32503;47.748;8.960;2023-05-20T01:25:15;96814.56;;;15.76;57.93
3150;BME280;32503;47.748;8.960;2023-05-20T01:27:42;96813.41;;;15.77;58.28
3150;BME280;32503;47.748;8.960;2023-05-20T01:30:10;96809.91;;;15.77;58.04
3150;BME280;32503;47.748;8.960;2023-05-20T01:32:42;96818.06;;;15.80;58.03
3150;BME280;32503;47.748;8.960;2023-05-20T01:35:13;96810.66;;;15.81;58.53
3150;BME280;32503;47.748;8.960;2023-05-20T01:37:42;96801.34;;;15.75;58.67
3150;BME280;32503;47.748;8.960;2023-05-20T01:40:14;96804.06;;;15.78;58.75
3150;BME280;32503;47.748;8.960;2023-05-20T01:42:43;96809.13;;;15.76;58.75
3150;BME280;32503;47.748;8.960;2023-05-20T01:45:11;96802.88;;;15.79;58.54
3150;BME280;32503;47.748;8.960;2023-05-20T01:47:38;96804.84;;;15.75;58.75
3150;BME280;32503;47.748;8.960;2023-05-20T01:50:07;96802.09;;;15.75;59.21
3150;BME280;32503;47.748;8.960;2023-05-20T01:52:34;96804.84;;;15.75;58.69
3150;BME280;32503;47.748;8.960;2023-05-20T01:55:01;96800.13;;;15.72;59.26
3150;BME280;32503;47.748;8.960;2023-05-20T01:57:29;96792.72;;;15.62;59.63
3150;BME280;32503;47.748;8.960;2023-05-20T01:59:56;96804.81;;;15.68;59.44
3150;BME280;32503;47.748;8.960;2023-05-20T02:02:23;96795.06;;;15.67;59.37
3150;BME280;32503;47.748;8.960;2023-05-20T02:04:52;96788.06;;;15.62;59.94
3150;BME280;32503;47.748;8.960;2023-05-20T02:07:19;96793.13;;;15.60;59.68
3150;BME280;32503;47.748;8.960;2023-05-20T02:09:47;96786.88;;;15.60;59.68
3150;BME280;32503;47.748;8.960;2023-05-20T02:12:14;96791.94;;;15.54;59.91
3150;BME280;32503;47.748;8.960;2023-05-20T02:14:44;96791.56;;;15.55;59.88
3150;BME280;32503;47.748;8.960;2023-05-20T02:17:11;96797.41;;;15.50;59.80
3150;BME280;32503;47.748;8.960;2023-05-20T02:19:39;96800.50;;;15.49;59.67
3150;BME280;32503;47.748;8.960;2023-05-20T02:22:06;96797.38;;;15.43;60.43
3150;BME280;32503;47.748;8.960;2023-05-20T02:24:33;96798.16;;;15.40;60.41
3150;BME280;32503;47.748;8.960;2023-05-20T02:27:00;96794.28;;;15.34;60.90
3150;BME280;32503;47.748;8.960;2023-05-20T02:29:29;96794.28;;;15.34;60.70
3150;BME280;32503;47.748;8.960;2023-05-20T02:31:58;96799.34;;;15.35;61.06
3150;BME280;32503;47.748;8.960;2023-05-20T02:34:26;96794.25;;;15.27;61.12
3150;BME280;32503;47.748;8.960;2023-05-20T02:36:53;96788.81;;;15.20;61.97
3150;BME280;32503;47.748;8.960;2023-05-20T02:39:20;96781.78;;;15.11;61.54
3150;BME280;32503;47.748;8.960;2023-05-20T02:41:47;96781.00;;;15.14;61.98
3150;BME280;32503;47.748;8.960;2023-05-20T02:44:14;96783.34;;;15.12;62.21
3150;BME280;32503;47.748;8.960;2023-05-20T02:46:41;96774.75;;;15.10;62.71
3150;BME280;32503;47.748;8.960;2023-05-20T02:49:09;96780.22;;;15.10;62.37
3150;BME280;32503;47.748;8.960;2023-05-20T02:51:38;96780.59;;;15.05;63.03
3150;BME280;32503;47.748;8.960;2023-05-20T02:54:06;96770.88;;;15.04;62.59
3150;BME280;32503;47.748;8.960;2023-05-20T02:56:33;96768.16;;;15.01;63.18
3150;BME280;32503;47.748;8.960;2023-05-20T02:59:00;96772.41;;;14.94;62.81
3150;BME280;32503;47.748;8.960;2023-05-20T03:01:28;96771.63;;;14.94;62.71
3150;BME280;32503;47.748;8.960;2023-05-20T03:03:55;96777.06;;;14.90;62.98
3150;BME280;32503;47.748;8.960;2023-05-20T03:06:23;96762.28;;;14.88;62.80
3150;BME280;32503;47.748;8.960;2023-05-20T03:08:50;96768.50;;;14.85;63.00
3150;BME280;32503;47.748;8.960;2023-05-20T03:11:17;96778.19;;;14.78;63.29
3150;BME280;32503;47.748;8.960;2023-05-20T03:13:44;96780.13;;;14.74;63.14
3150;BME280;32503;47.748;8.960;2023-05-20T03:16:11;96778.16;;;14.71;63.65
3150;BME280;32503;47.748;8.960;2023-05-20T03:18:39;96772.72;;;14.71;63.32
3150;BME280;32503;47.748;8.960;2023-05-20T03:21:06;96781.66;;;14.68;63.71
3150;BME280;32503;47.748;8.960;2023-05-20T03:23:35;96780.09;;;14.67;63.52
3150;BME280;32503;47.748;8.960;2023-05-20T03:26:02;96774.66;;;14.67;63.82
3150;BME280;32503;47.748;8.960;2023-05-20T03:28:31;96775.81;;;14.66;63.74
3150;BME280;32503;47.748;8.960;2023-05-20T03:30:58;96781.66;;;14.68;64.02
3150;BME280;32503;47.748;8.960;2023-05-20T03:33:28;96773.50;;;14.68;63.69
3150;BME280;32503;47.748;8.960;2023-05-20T03:35:56;96775.41;;;14.64;64.07
3150;BME280;32503;47.748;8.960;2023-05-20T03:38:23;96773.88;;;14.63;64.32
3150;BME280;32503;47.748;8.960;2023-05-20T03:40:52;96764.53;;;14.64;64.26
3150;BME280;32503;47.748;8.960;2023-05-20T03:43:19;96762.19;;;14.63;64.58
3150;BME280;32503;47.748;8.960;2023-05-20T03:45:46;96766.84;;;14.62;64.64
3150;BME280;32503;47.748;8.960;2023-05-20T03:48:13;96762.13;;;14.55;65.02
3150;BME280;32503;47.748;8.960;2023-05-20T03:50:40;96754.00;;;14.59;64.97
3150;BME280;32503;47.748;8.960;2023-05-20T03:53:07;96760.97;;;14.56;64.88
3150;BME280;32503;47.748;8.960;2023-05-20T03:55:35;96764.84;;;14.52;65.44
3150;BME280;32503;47.748;8.960;2023-05-20T03:58:03;96756.69;;;14.52;65.31
3150;BME280;32503;47.748;8.960;2023-05-20T04:00:30;96762.09;;;14.48;65.75
3150;BME280;32503;47.748;8.960;2023-05-20T04:02:58;96772.97;;;14.45;65.60
3150;BME280;32503;47.748;8.960;2023-05-20T04:05:25;96772.19;;;14.40;66.03
3150;BME280;32503;47.748;8.960;2023-05-20T04:07:52;96769.84;;;14.43;66.01
3150;BME280;32503;47.748;8.960;2023-05-20T04:10:19;96765.56;;;14.45;65.67
3150;BME280;32503;47.748;8.960;2023-05-20T04:12:47;96763.28;;;14.51;65.67
3150;BME280;32503;47.748;8.960;2023-05-20T04:15:16;96769.19;;;14.60;65.42
3150;BME280;32503;47.748;8.960;2023-05-20T04:17:44;96769.56;;;14.58;65.84
3150;BME280;32503;47.748;8.960;2023-05-20T04:20:13;96773.81;;;14.56;65.81
3150;BME280;32503;47.748;8.960;2023-05-20T04:22:40;96782.78;;;14.60;65.83
3150;BME280;32503;47.748;8.960;2023-05-20T04:25:08;96766.84;;;14.62;65.55
3150;BME280;32503;47.748;8.960;2023-05-20T04:27:35;96775.41;;;14.68;65.68
3150;BME280;32503;47.748;8.960;2023-05-20T04:30:03;96778.53;;;14.70;65.43
3150;BME280;32503;47.748;8.960;2023-05-20T04:32:32;96777.03;;;14.79;65.24
3150;BME280;32503;47.748;8.960;2023-05-20T04:35:00;96772.38;;;14.84;64.99
3150;BME280;32503;47.748;8.960;2023-05-20T04:37:27;96774.72;;;14.89;65.44
3150;BME280;32503;47.748;8.960;2023-05-20T04:39:56;96773.94;;;14.92;65.31
3150;BME280;32503;47.748;8.960;2023-05-20T04:42:23;96778.25;;;14.96;65.27
3150;BME280;32503;47.748;8.960;2023-05-20T04:44:50;96774.34;;;15.01;65.20
3150;BME280;32503;47.748;8.960;2023-05-20T04:47:18;96768.53;;;15.06;65.08
3150;BME280;32503;47.748;8.960;2023-05-20T04:49:46;96761.16;;;15.10;65.10
3150;BME280;32503;47.748;8.960;2023-05-20T04:52:14;96762.72;;;15.15;64.82
3150;BME280;32503;47.748;8.960;2023-05-20T04:54:42;96761.56;;;15.16;65.12
3150;BME280;32503;47.748;8.960;2023-05-20T04:57:09;96759.25;;;15.18;65.18
3150;BME280;32503;47.748;8.960;2023-05-20T04:59:37;96758.06;;;15.23;65.42
3150;BME280;32503;47.748;8.960;2023-05-20T05:02:04;96763.50;;;15.26;65.34
3150;BME280;32503;47.748;8.960;2023-05-20T05:04:31;96762.34;;;15.31;64.96
3150;BME280;32503;47.748;8.960;2023-05-20T05:06:59;96749.50;;;15.35;65.25
3150;BME280;32503;47.748;8.960;2023-05-20T05:09:26;96751.09;;;15.40;64.84
3150;BME280;32503;47.748;8.960;2023-05-20T05:11:53;96758.09;;;15.44;64.66
3150;BME280;32503;47.748;8.960;2023-05-20T05:14:20;96745.25;;;15.34;64.92
3150;BME280;32503;47.748;8.960;2023-05-20T05:16:48;96748.34;;;15.43;65.06
3150;BME280;32503;47.748;8.960;2023-05-20T05:19:15;96753.03;;;15.50;65.05
3150;BME280;32503;47.748;8.960;2023-05-20T05:21:42;96756.53;;;15.50;64.91
3150;BME280;32503;47.748;8.960;2023-05-20T05:24:11;96754.97;;;15.49;64.78
3150;BME280;32503;47.748;8.960;2023-05-20T05:26:38;96753.41;;;15.48;64.93
3150;BME280;32503;47.748;8.960;2023-05-20T05:29:05;96759.25;;;15.50;65.11
3150;BME280;32503;47.748;8.960;2023-05-20T05:31:32;96757.69;;;15.49;65.31
3150;BME280;32503;47.748;8.960;2023-05-20T05:33:59;96763.13;;;15.49;65.42
3150;BME280;32503;47.748;8.960;2023-05-20T05:36:26;96758.09;;;15.51;65.13
3150;BME280;32503;47.748;8.960;2023-05-20T05:38:53;96756.53;;;15.54;64.60
3150;BME280;32503;47.748;8.960;2023-05-20T05:41:22;96757.72;;;15.60;64.70
3150;BME280;32503;47.748;8.960;2023-05-20T05:43:49;96760.44;;;15.64;64.70
3150;BME280;32503;47.748;8.960;2023-05-20T05:46:16;96737.47;;;15.58;64.23
3150;BME280;32503;47.748;8.960;2023-05-20T05:48:43;96748.34;;;15.72;64.19
3150;BME280;32503;47.748;8.960;2023-05-20T05:51:13;96746.81;;;15.75;64.05
3150;BME280;32503;47.748;8.960;2023-05-20T05:53:40;96746.81;;;15.85;63.51
3150;BME280;32503;47.748;8.960;2023-05-20T05:56:08;96742.91;;;15.86;63.54
3150;BME280;32503;47.748;8.960;2023-05-20T05:58:37;96747.56;;;15.93;63.64
3150;BME280;32503;47.748;8.960;2023-05-20T06:01:04;96743.28;;;15.96;63.69
3150;BME280;32503;47.748;8.960;2023-05-20T06:03:31;96742.91;;;15.97;63.82
3150;BME280;32503;47.748;8.960;2023-05-20T06:05:58;96736.66;;;15.97;63.68
3150;BME280;32503;47.748;8.960;2023-05-20T06:08:25;96740.56;;;15.99;63.44
3150;BME280;32503;47.748;8.960;2023-05-20T06:10:52;96750.66;;;16.02;63.56
3150;BME280;32503;47.748;8.960;2023-05-20T06:13:19;96751.06;;;16.04;63.80
3150;BME280;32503;47.748;8.960;2023-05-20T06:15:49;96746.03;;;15.99;63.92
3150;BME280;32503;47.748;8.960;2023-05-20T06:18:18;96748.38;;;15.94;64.32
3150;BME280;32503;47.748;8.960;2023-05-20T06:20:45;96749.91;;;15.95;64.07
3150;BME280;32503;47.748;8.960;2023-05-20T06:23:12;96761.56;;;15.99;63.73
3150;BME280;32503;47.748;8.960;2023-05-20T06:25:39;96751.47;;;15.96;64.59
3150;BME280;32503;47.748;8.960;2023-05-20T06:28:06;96754.97;;;15.96;64.29
3150;BME280;32503;47.748;8.960;2023-05-20T06:30:33;96747.16;;;16.02;63.92
3150;BME280;32503;47.748;8.960;2023-05-20T06:33:02;96739.78;;;16.06;63.81
3150;BME280;32503;47.748;8.960;2023-05-20T06:35:29;96727.28;;;16.12;63.66
3150;BME280;32503;47.748;8.960;2023-05-20T06:37:59;96725.69;;;16.15;63.77
3150;BME280;32503;47.748;8.960;2023-05-20T06:40:26;96721.03;;;16.15;63.81
3150;BME280;32503;47.748;8.960;2023-05-20T06:42:54;96720.25;;;16.18;63.73
3150;BME280;32503;47.748;8.960;2023-05-20T06:45:21;96721.03;;;16.22;63.79
3150;BME280;32503;47.748;8.960;2023-05-20T06:47:48;96707.75;;;16.24;63.68
3150;BME280;32503;47.748;8.960;2023-05-20T06:50:17;96722.53;;;16.38;63.19
3150;BME280;32503;47.748;8.960;2023-05-20T06:52:44;96720.94;;;16.40;62.74
3150;BME280;32503;47.748;8.960;2023-05-20T06:55:11;96724.06;;;16.39;62.96
3150;BME280;32503;47.748;8.960;2023-05-20T06:57:38;96724.84;;;16.36;63.40
3150;BME280;32503;47.748;8.960;2023-05-20T07:00:07;96730.31;;;16.39;62.67
3150;BME280;32503;47.748;8.960;2023-05-20T07:02:34;96730.28;;;16.43;62.41
3150;BME280;32503;47.748;8.960;2023-05-20T07:05:02;96731.47;;;16.45;62.52
3150;BME280;32503;47.748;8.960;2023-05-20T07:07:30;96732.59;;;16.48;62.14
3150;BME280;32503;47.748;8.960;2023-05-20T07:09:57;96736.50;;;16.51;62.47
3150;BME280;32503;47.748;8.960;2023-05-20T07:12:25;96738.06;;;16.48;62.58
3150;BME280;32503;47.748;8.960;2023-05-20T07:14:52;96733.00;;;16.50;62.39
3150;BME280;32503;47.748;8.960;2023-05-20T07:17:19;96732.22;;;16.46;62.85
3150;BME280;32503;47.748;8.960;2023-05-20T07:19:46;96735.75;;;16.50;62.55
3150;BME280;32503;47.748;8.960;2023-05-20T07:22:13;96725.59;;;16.51;62.08
3150;BME280;32503;47.748;8.960;2023-05-20T07:24:41;96727.13;;;16.55;61.98
3150;BME280;32503;47.748;8.960;2023-05-20T07:27:08;96717.44;;;16.47;62.21
3150;BME280;32503;47.748;8.960;2023-05-20T07:29:36;96723.63;;;16.51;62.33
3150;BME280;32503;47.748;8.960;2023-05-20T07:32:04;96729.47;;;16.53;62.53
3150;BME280;32503;47.748;8.960;2023-05-20T07:34:31;96721.28;;;16.53;62.32
3150;BME280;32503;47.748;8.960;2023-05-20T07:36:58;96722.84;;;16.54;62.21
3150;BME280;32503;47.748;8.960;2023-05-20T07:39:26;96716.97;;;16.63;62.21
3150;BME280;32503;47.748;8.960;2023-05-20T07:41:54;96716.94;;;16.66;62.03
3150;BME280;32503;47.748;8.960;2023-05-20T07:44:21;96720.00;;;16.76;61.40
3150;BME280;32503;47.748;8.960;2023-05-20T07:46:48;96715.31;;;16.83;61.40
3150;BME280;32503;47.748;8.960;2023-05-20T07:49:15;96714.88;;;16.89;60.70
3150;BME280;32503;47.748;8.960;2023-05-20T07:51:42;96717.19;;;16.94;60.70
3150;BME280;32503;47.748;8.960;2023-05-20T07:54:11;96710.56;;;16.98;60.67
3150;BME280;32503;47.748;8.960;2023-05-20T07:56:38;96713.22;;;17.05;60.44
3150;BME280;32503;47.748;8.960;2023-05-20T07:59:06;96717.47;;;17.14;60.46
3150;BME280;32503;47.748;8.960;2023-05-20T08:01:33;96711.16;;;17.20;60.29
3150;BME280;32503;47.748;8.960;2023-05-20T08:04:01;96724.44;;;17.22;60.38
3150;BME280;32503;47.748;8.960;2023-05-20T08:06:28;96711.91;;;17.28;59.55
3150;BME280;32503;47.748;8.960;2023-05-20T08:08:56;96713.03;;;17.31;59.38
3150;BME280;32503;47.748;8.960;2023-05-20T08:11:23;96704.03;;;17.37;59.40
3150;BME280;32503;47.748;8.960;2023-05-20T08:13:50;96708.81;;;17.26;59.13
3150;BME280;32503;47.748;8.960;2023-05-20T08:16:20;96703.25;;;17.37;58.82
3150;BME280;32503;47.748;8.960;2023-05-20T08:18:47;96712.19;;;17.41;58.81
3150;BME280;32503;47.748;8.960;2023-05-20T08:21:14;96713.28;;;17.51;58.78
3150;BME280;32503;47.748;8.960;2023-05-20T08:23:41;96713.63;;;17.56;58.45
3150;BME280;32503;47.748;8.960;2023-05-20T08:26:08;96713.19;;;17.61;58.24
3150;BME280;32503;47.748;8.960;2023-05-20T08:28:36;96717.47;;;17.62;58.03
3150;BME280;32503;47.748;8.960;2023-05-20T08:31:03;96717.25;;;17.42;58.74
3150;BME280;32503;47.748;8.960;2023-05-20T08:33:32;96715.81;;;17.27;58.94
3150;BME280;32503;47.748;8.960;2023-05-20T08:35:59;96724.44;;;17.22;59.84
3150;BME280;32503;47.748;8.960;2023-05-20T08:38:26;96715.03;;;17.27;59.28
3150;BME280;32503;47.748;8.960;2023-05-20T08:40:55;96713.78;;;17.38;59.03
3150;BME280;32503;47.748;8.960;2023-05-20T08:43:23;96723.22;;;17.30;59.50
3150;BME280;32503;47.748;8.960;2023-05-20T08:45:51;96706.34;;;17.42;59.19
3150;BME280;32503;47.748;8.960;2023-05-20T08:48:18;96708.56;;;17.55;59.21
3150;BME280;32503;47.748;8.960;2023-05-20T08:50:50;96710.16;;;17.49;59.20
3150;BME280;32503;47.748;8.960;2023-05-20T08:53:18;96705.34;;;17.67;58.63
3150;BME280;32503;47.748;8.960;2023-05-20T08:55:52;96712.72;;;17.70;58.18
3150;BME280;32503;47.748;8.960;2023-05-20T08:58:20;96707.22;;;17.74;57.95
3150;BME280;32503;47.748;8.960;2023-05-20T09:00:48;96716.13;;;17.81;57.92
3150;BME280;32503;47.748;8.960;2023-05-20T09:03:15;96706.69;;;17.93;57.74
3150;BME280;32503;47.748;8.960;2023-05-20T09:05:46;96709.66;;;18.06;57.42
3150;BME280;32503;47.748;8.960;2023-05-20T09:08:13;96715.38;;;18.19;56.69
3150;BME280;32503;47.748;8.960;2023-05-20T09:10:41;96711.34;;;18.31;56.92
3150;BME280;32503;47.748;8.960;2023-05-20T09:13:09;96708.13;;;18.40;56.69
3150;BME280;32503;47.748;8.960;2023-05-20T09:15:37;96710.34;;;18.48;56.58
3150;BME280;32503;47.748;8.960;2023-05-20T09:18:07;96715.56;;;18.39;55.83
3150;BME280;32503;47.748;8.960;2023-05-20T09:20:36;96713.47;;;18.50;56.02
3150;BME280;32503;47.748;8.960;2023-05-20T09:23:06;96699.72;;;18.54;55.95
3150;BME280;32503;47.748;8.960;2023-05-20T09:25:34;96697.00;;;18.81;55.17
3150;BME280;32503;47.748;8.960;2023-05-20T09:28:03;96703.16;;;18.92;54.94
3150;BME280;32503;47.748;8.960;2023-05-20T09:30:31;96709.25;;;19.04;54.59
3150;BME280;32503;47.748;8.960;2023-05-20T09:33:03;96714.72;;;19.04;54.45
3150;BME280;32503;47.748;8.960;2023-05-20T09:35:33;96704.97;;;19.03;53.66
3150;BME280;32503;47.748;8.960;2023-05-20T09:38:02;96703.97;;;18.89;53.72
3150;BME280;32503;47.748;8.960;2023-05-20T09:40:31;96700.88;;;18.87;53.96
3150;BME280;32503;47.748;8.960;2023-05-20T09:43:03;96698.22;;;18.80;54.20
3150;BME280;32503;47.748;8.960;2023-05-20T09:45:31;96693.00;;;18.89;54.31
3150;BME280;32503;47.748;8.960;2023-05-20T09:48:01;96680.19;;;19.10;53.13
3150;BME280;32503;47.748;8.960;2023-05-20T09:50:28;96681.53;;;19.25;52.70
3150;BME280;32503;47.748;8.960;2023-05-20T09:52:56;96680.69;;;19.28;53.08
3150;BME280;32503;47.748;8.960;2023-05-20T09:55:27;96680.03;;;19.68;55.20
3150;BME280;32503;47.748;8.960;2023-05-20T09:57:59;96683.78;;;20.01;53.76
3150;BME280;32503;47.748;8.960;2023-05-20T10:00:27;96685.19;;;20.30;51.50
3150;BME280;32503;47.748;8.960;2023-05-20T10:02:56;96693.69;;;20.35;51.80
3150;BME280;32503;47.748;8.960;2023-05-20T10:05:26;96688.22;;;20.35;51.23
3150;BME280;32503;47.748;8.960;2023-05-20T10:08:31;96691.88;;;20.29;50.66
3150;BME280;32503;47.748;8.960;2023-05-20T10:11:12;96697.84;;;20.03;51.33
3150;BME280;32503;47.748;8.960;2023-05-20T10:14:15;96689.16;;;19.85;51.61
3150;BME280;32503;47.748;8.960;2023-05-20T10:16:52;96682.25;;;19.77;52.28
3150;BME280;32503;47.748;8.960;2023-05-20T10:19:27;96689.44;;;19.67;52.27
3150;BME280;32503;47.748;8.960;2023-05-20T10:21:57;96685.19;;;19.66;52.24
3150;BME280;32503;47.748;8.960;2023-05-20T10:24:29;96679.25;;;19.67;52.10
3150;BME280;32503;47.748;8.960;2023-05-20T10:26:59;96690.50;;;19.77;52.30
3150;BME280;32503;47.748;8.960;2023-05-20T10:29:29;96683.31;;;19.83;51.03
3150;BME280;32503;47.748;8.960;2023-05-20T10:31:56;96683.63;;;19.65;51.93
3150;BME280;32503;47.748;8.960;2023-05-20T10:34:23;96680.09;;;19.64;52.30
3150;BME280;32503;47.748;8.960;2023-05-20T10:36:59;96669.31;;;19.54;52.42
3150;BME280;32503;47.748;8.960;2023-05-20T10:39:28;96672.22;;;19.66;51.74
3150;BME280;32503;47.748;8.960;2023-05-20T10:42:06;96680.09;;;19.64;50.93
3150;BME280;32503;47.748;8.960;2023-05-20T10:44:42;96670.25;;;19.67;51.59
3150;BME280;32503;47.748;8.960;2023-05-20T10:47:09;96685.53;;;19.68;51.74
3150;BME280;32503;47.748;8.960;2023-05-20T10:49:44;96679.81;;;19.82;51.70
3150;BME280;32503;47.748;8.960;2023-05-20T10:52:12;96680.78;;;19.92;51.06
3150;BME280;32503;47.748;8.960;2023-05-20T10:54:43;96667.81;;;19.96;50.83
3150;BME280;32503;47.748;8.960;2023-05-20T10:57:11;96670.38;;;19.83;50.92
3150;BME280;32503;47.748;8.960;2023-05-20T10:59:38;96682.06;;;19.87;51.44
3150;BME280;32503;47.748;8.960;2023-05-20T11:02:07;96678.19;;;19.85;51.63
3150;BME280;32503;47.748;8.960;2023-05-20T11:04:38;96672.28;;;19.86;51.34
3150;BME280;32503;47.748;8.960;2023-05-20T11:07:05;96675.63;;;19.74;51.07
3150;BME280;32503;47.748;8.960;2023-05-20T11:09:32;96677.47;;;19.81;50.69
3150;BME280;32503;47.748;8.960;2023-05-20T11:11:59;96672.34;;;19.83;50.65
3150;BME280;32503;47.748;8.960;2023-05-20T11:14:27;96667.44;;;19.70;50.86
3150;BME280;32503;47.748;8.960;2023-05-20T11:16:56;96654.34;;;19.58;51.20
3150;BME280;32503;47.748;8.960;2023-05-20T11:19:25;96652.63;;;19.68;51.45
3150;BME280;32503;47.748;8.960;2023-05-20T11:21:52;96662.28;;;19.76;51.16
3150;BME280;32503;47.748;8.960;2023-05-20T11:24:24;96661.25;;;19.90;51.09
3150;BME280;32503;47.748;8.960;2023-05-20T11:26:52;96664.44;;;20.08;50.68
3150;BME280;32503;47.748;8.960;2023-05-20T11:29:19;96651.94;;;20.24;50.22
3150;BME280;32503;47.748;8.960;2023-05-20T11:31:48;96651.03;;;20.31;49.88
3150;BME280;32503;47.748;8.960;2023-05-20T11:34:19;96649.13;;;20.27;50.29
3150;BME280;32503;47.748;8.960;2023-05-20T11:36:54;96658.50;;;20.30;50.04
3150;BME280;32503;47.748;8.960;2023-05-20T11:39:21;96646.84;;;20.26;50.19
3150;BME280;32503;47.748;8.960;2023-05-20T11:41:49;96645.81;;;20.36;49.85
3150;BME280;32503;47.748;8.960;2023-05-20T11:44:19;96652.78;;;20.41;50.08
3150;BME280;32503;47.748;8.960;2023-05-20T11:46:47;96655.59;;;20.37;49.68
3150;BME280;32503;47.748;8.960;2023-05-20T11:49:14;96659.75;;;20.45;49.24
3150;BME280;32503;47.748;8.960;2023-05-20T11:51:43;96668.75;;;20.66;49.33
3150;BME280;32503;47.748;8.960;2023-05-20T11:54:12;96655.56;;;20.77;49.13
3150;BME280;32503;47.748;8.960;2023-05-20T11:56:39;96653.25;;;20.92;49.09
3150;BME280;32503;47.748;8.960;2023-05-20T11:59:08;96654.91;;;21.06;48.72
3150;BME280;32503;47.748;8.960;2023-05-20T12:01:38;96646.84;;;21.15;48.15
3150;BME280;32503;47.748;8.960;2023-05-20T12:04:05;96639.44;;;21.29;48.16
3150;BME280;32503;47.748;8.960;2023-05-20T12:06:32;96635.31;;;21.37;48.11
3150;BME280;32503;47.748;8.960;2023-05-20T12:09:02;96628.28;;;21.52;47.86
3150;BME280;32503;47.748;8.960;2023-05-20T12:11:33;96628.50;;;21.74;47.09
3150;BME280;32503;47.748;8.960;2023-05-20T12:14:01;96622.09;;;21.77;46.58
3150;BME280;32503;47.748;8.960;2023-05-20T12:16:30;96617.38;;;21.78;47.22
3150;BME280;32503;47.748;8.960;2023-05-20T12:18:57;96614.97;;;21.80;47.00
3150;BME280;32503;47.748;8.960;2023-05-20T12:21:24;96608.59;;;21.83;46.60
3150;BME280;32503;47.748;8.960;2023-05-20T12:23:51;96614.78;;;21.87;46.49
3150;BME280;32503;47.748;8.960;2023-05-20T12:26:22;96611.16;;;21.90;46.68
3150;BME280;32503;47.748;8.960;2023-05-20T12:28:51;96605.47;;;21.98;47.35
3150;BME280;32503;47.748;8.960;2023-05-20T12:31:18;96601.63;;;22.08;47.12
3150;BME280;32503;47.748;8.960;2023-05-20T12:33:46;96595.81;;;22.19;47.22
3150;BME280;32503;47.748;8.960;2023-05-20T12:36:13;96590.91;;;21.97;46.49
3150;BME280;32503;47.748;8.960;2023-05-20T12:38:40;96596.13;;;22.08;46.77
3150;BME280;32503;47.748;8.960;2023-05-20T12:41:08;96601.69;;;22.33;46.67
3150;BME280;32503;47.748;8.960;2023-05-20T12:43:35;96600.06;;;22.62;46.59
3150;BME280;32503;47.748;8.960;2023-05-20T12:46:04;96593.69;;;22.65;45.20
3150;BME280;32503;47.748;8.960;2023-05-20T12:48:31;96586.41;;;22.58;45.21
3150;BME280;32503;47.748;8.960;2023-05-20T12:50:58;96582.97;;;22.28;45.83
3150;BME280;32503;47.748;8.960;2023-05-20T12:53:26;96579.13;;;22.39;46.30
3150;BME280;32503;47.748;8.960;2023-05-20T12:55:53;96584.09;;;22.31;46.11
3150;BME280;32503;47.748;8.960;2023-05-20T12:58:20;96575.94;;;22.27;46.08
3150;BME280;32503;47.748;8.960;2023-05-20T13:00:47;96580.81;;;22.20;46.11
3150;BME280;32503;47.748;8.960;2023-05-20T13:03:16;96567.16;;;22.16;46.07
3150;BME280;32503;47.748;8.960;2023-05-20T13:05:43;96568.19;;;22.22;46.37
3150;BME280;32503;47.748;8.960;2023-05-20T13:08:10;96565.78;;;22.50;46.30
3150;BME280;32503;47.748;8.960;2023-05-20T13:10:37;96568.22;;;22.61;46.68
3150;BME280;32503;47.748;8.960;2023-05-20T13:13:04;96573.84;;;22.70;46.20
3150;BME280;32503;47.748;8.960;2023-05-20T13:15:31;96562.59;;;22.77;45.69